Helena, MT

11:13 PM MDT on September 16, 2014 (GMT -0600)
Great Falls International | Change Station
CLOSE
Current Station
Airport
Location: Great Falls,
Elevation: 3658 ft
Nearby Weather Stations

Elev 3658 ft 47.47 °N, 111.38 °W | Updated 20 minutes ago

Partly Cloudy
Partly Cloudy
60 °F
Feels Like 60 °F
N
8
Wind Variable Wind from SW

Today
High -- | Low -- °F
--% Chance of Precip.
Yesterday
High -- | Low -- °F
Precip. -- in
7:07 AM 7:37 PM
Last Quarter, 39% visible
Pressure 29.86 in
Visibility 10.0 miles
Clouds Clear
Dew Point 44 °F
Humidity 55%
Rainfall 0.00 in
Snow Depth 0 in , 0 in , 0 in
UV 0 out of 12
Pollen 5.90 out of 12
Air Quality Not available.
Flu Activity Not available.
METAR KGTF 170453Z 22007KT 10SM CLR 16/07 A2991 RMK AO2 SLP109 T01560067 $

More Conditions Fewer Conditions

Pressure 29.86 in
Visibility 10.0 miles
Clouds Clear
Dew Point 44 °F
Humidity 55%
Rainfall 0.00 in
Snow Depth 0 in , 0 in , 0 in
UV 0 out of 12
Pollen 5.90 out of 12
Air Quality Not available.
Flu Activity Not available.
METAR KGTF 170453Z 22007KT 10SM CLR 16/07 A2991 RMK AO2 SLP109 T01560067 $

More Conditions Fewer Conditions

10-Day Weather Forecast

Almanac

Astronomy

Sep. 16, 2014 Rise Set
Actual Time 7:07 AM MDT 7:37 PM MDT
Civil Twilight 6:36 AM MDT 8:07 PM MDT
Nautical Twilight 6:00 AM MDT 8:43 PM MDT
Astronomical Twilight 5:23 AM MDT 9:20 PM MDT
Moon 12:04 AM MDT (9/16) 3:19 PM MDT (9/16)
Length of Visible Light 13h 30m
Length of Day
12h 30m
Tomorrow will be 3m 17s shorter.
Last Quarter, 39% of the Moon is Illuminated
Sep 17
Last Quarter
Sep 24
New
Oct 1
First Quarter
Oct 8
Full
Oct 15
Last Quarter

Yesterday's Extremes

State Highs State Lows

Community

WunderPhotos

Upload Photos

1,753,968 photos uploaded!

Nearby

Snow Depth

Station Depth Elevation
Badger Pass 0 in 6900 ft
Black Pine 0 in 7210 ft
Lone Mountain 0 in 8880 ft
Fisher Creek 1 in 9100 ft
Monument Peak 0 in 8850 ft

Earthquake Activity

City Distance Mag. Time & Date
No recent earthquake activity has been reported nearby.
Minimum magnitude displayed is 2.5.

Coastal Water Temperatures

Place Temperature
No Stations Reporting

Nearby Weather Stations